createdAt,value
2019-03-29T00:02:21.553Z,6.70
2019-03-29T00:04:50.120Z,10.13
2019-03-29T00:07:18.887Z,6.17
2019-03-29T00:09:47.466Z,7.33
2019-03-29T00:12:16.071Z,7.73
2019-03-29T00:14:44.642Z,6.60
2019-03-29T00:17:13.185Z,8.60
2019-03-29T00:19:41.750Z,8.33
2019-03-29T00:22:10.308Z,8.23
2019-03-29T00:24:38.865Z,10.23
2019-03-29T00:27:07.405Z,10.73
2019-03-29T00:29:35.972Z,9.23
2019-03-29T00:32:05.909Z,10.87
2019-03-29T00:34:34.562Z,10.23
2019-03-29T00:37:03.101Z,9.87
2019-03-29T00:39:31.737Z,11.57
2019-03-29T00:42:00.345Z,10.50
2019-03-29T00:44:28.944Z,13.30
2019-03-29T00:46:57.484Z,10.50
2019-03-29T00:49:26.048Z,9.53
2019-03-29T00:51:54.586Z,9.17
2019-03-29T00:54:22.830Z,10.57
2019-03-29T00:56:51.371Z,9.17
2019-03-29T00:59:19.616Z,9.80
2019-03-29T01:01:48.157Z,11.27
2019-03-29T01:04:16.792Z,9.63
2019-03-29T01:06:45.420Z,12.33
2019-03-29T01:09:13.992Z,13.77
2019-03-29T01:11:42.533Z,10.70
2019-03-29T01:14:11.169Z,9.47
2019-03-29T01:16:39.712Z,11.67
2019-03-29T01:19:08.290Z,13.43
2019-03-29T01:21:36.823Z,9.80
2019-03-29T01:24:05.441Z,12.80
2019-03-29T01:26:34.008Z,10.80
2019-03-29T01:29:02.553Z,10.53
2019-03-29T01:31:31.129Z,10.97
2019-03-29T01:33:59.665Z,11.67
2019-03-29T01:36:28.304Z,13.50
2019-03-29T01:38:56.786Z,12.83
2019-03-29T01:41:25.353Z,12.53
2019-03-29T01:43:53.898Z,14.70
2019-03-29T01:46:22.468Z,17.03
2019-03-29T01:48:51.012Z,20.77
2019-03-29T01:51:19.715Z,17.60
2019-03-29T01:53:48.252Z,13.93
2019-03-29T01:56:16.819Z,14.07
2019-03-29T01:58:45.036Z,16.07
2019-03-29T02:01:13.280Z,14.97
2019-03-29T02:03:41.816Z,15.77
2019-03-29T02:06:10.465Z,16.00
2019-03-29T02:08:38.941Z,15.30
2019-03-29T02:11:07.520Z,16.10
2019-03-29T02:13:36.157Z,15.83
2019-03-29T02:16:04.684Z,16.67
2019-03-29T02:18:33.276Z,17.93
2019-03-29T02:21:01.893Z,17.40
2019-03-29T02:23:30.937Z,17.77
2019-03-29T02:25:59.509Z,15.73
2019-03-29T02:28:28.091Z,17.93
2019-03-29T02:30:56.711Z,16.63
2019-03-29T02:33:25.296Z,18.70
2019-03-29T02:35:53.513Z,16.77
2019-03-29T02:38:23.542Z,18.70
2019-03-29T02:40:52.350Z,18.57
2019-03-29T02:43:20.927Z,17.53
2019-03-29T02:45:49.473Z,19.07
2019-03-29T02:48:18.055Z,22.00
2019-03-29T02:50:46.277Z,20.17
2019-03-29T02:53:14.598Z,16.63
2019-03-29T02:55:43.150Z,21.50
2019-03-29T02:58:11.734Z,20.70
2019-03-29T03:00:40.284Z,18.77
2019-03-29T03:03:08.937Z,17.17
2019-03-29T03:05:37.522Z,19.90
2019-03-29T03:08:06.070Z,16.30
2019-03-29T03:10:34.320Z,18.20
2019-03-29T03:13:02.865Z,18.87
2019-03-29T03:15:31.510Z,17.30
2019-03-29T03:18:00.060Z,21.20
2019-03-29T03:20:28.648Z,16.00
2019-03-29T03:22:57.262Z,17.10
2019-03-29T03:25:25.513Z,17.17
2019-03-29T03:27:54.066Z,23.93
2019-03-29T03:30:22.745Z,19.17
2019-03-29T03:32:51.285Z,17.90
2019-03-29T03:35:19.999Z,15.60
2019-03-29T03:37:48.543Z,18.43
2019-03-29T03:40:17.459Z,15.73
2019-03-29T03:42:46.170Z,26.70
2019-03-29T03:45:15.095Z,19.53
2019-03-29T03:47:43.642Z,16.57
2019-03-29T03:50:17.806Z,17.70
2019-03-29T03:52:46.422Z,17.17
2019-03-29T03:55:14.682Z,16.50
2019-03-29T03:57:43.490Z,18.43
2019-03-29T04:00:12.182Z,22.03
2019-03-29T04:02:40.836Z,20.23
2019-03-29T04:05:09.527Z,18.97
2019-03-29T04:07:37.770Z,17.23
2019-03-29T04:10:06.664Z,19.33
2019-03-29T04:12:35.316Z,17.93
2019-03-29T04:15:04.127Z,19.77
2019-03-29T04:17:32.705Z,21.20
2019-03-29T04:20:01.260Z,18.23
2019-03-29T04:22:29.907Z,18.63
2019-03-29T04:24:58.450Z,24.90
2019-03-29T04:27:27.029Z,19.40
2019-03-29T04:29:55.259Z,19.27
2019-03-29T04:32:23.957Z,20.50
2019-03-29T04:34:52.493Z,21.70
2019-03-29T04:37:21.073Z,22.63
2019-03-29T04:40:05.760Z,19.57
2019-03-29T04:42:19.917Z,21.13
2019-03-29T04:44:48.461Z,18.90
2019-03-29T04:47:17.058Z,19.93
2019-03-29T04:49:45.590Z,26.43
2019-03-29T04:52:14.173Z,19.53
2019-03-29T04:54:42.389Z,21.47
2019-03-29T04:57:10.973Z,21.93
2019-03-29T04:59:39.526Z,18.67
2019-03-29T05:02:07.777Z,20.60
2019-03-29T05:04:36.001Z,24.97
2019-03-29T05:07:04.586Z,19.00
2019-03-29T05:09:33.130Z,21.73
2019-03-29T05:12:01.713Z,21.07
2019-03-29T05:14:30.262Z,20.60
2019-03-29T05:16:58.847Z,25.57
2019-03-29T05:19:27.397Z,23.27
2019-03-29T05:21:55.653Z,24.90
2019-03-29T05:24:24.199Z,18.67
2019-03-29T05:26:52.774Z,23.67
2019-03-29T05:29:20.993Z,22.90
2019-03-29T05:31:49.577Z,19.93
2019-03-29T05:34:18.126Z,19.97
2019-03-29T05:36:46.385Z,25.97
2019-03-29T05:39:14.946Z,22.00
2019-03-29T05:41:43.510Z,20.60
2019-03-29T05:44:12.061Z,19.63
2019-03-29T05:46:40.638Z,22.97
2019-03-29T05:49:09.186Z,23.53
2019-03-29T05:51:37.737Z,22.67
2019-03-29T05:54:05.993Z,26.80
2019-03-29T05:56:34.541Z,24.40
2019-03-29T05:59:03.124Z,24.50
2019-03-29T06:01:31.669Z,22.93
2019-03-29T06:04:00.250Z,23.03
2019-03-29T06:06:28.474Z,30.00
2019-03-29T06:08:57.122Z,23.07
2019-03-29T06:11:25.669Z,24.27
2019-03-29T06:13:54.250Z,22.83
2019-03-29T06:16:22.803Z,26.23
2019-03-29T06:18:51.377Z,19.97
2019-03-29T06:21:19.957Z,24.10
2019-03-29T06:23:48.541Z,25.03
2019-03-29T06:26:17.087Z,22.17
2019-03-29T06:28:45.666Z,20.97
2019-03-29T06:31:14.218Z,21.10
2019-03-29T06:33:44.513Z,18.50
2019-03-29T06:36:15.542Z,19.13
2019-03-29T06:38:46.057Z,23.83
2019-03-29T06:41:14.607Z,19.47
2019-03-29T06:43:43.180Z,21.53
2019-03-29T06:46:11.729Z,16.83
2019-03-29T06:48:40.302Z,19.07
2019-03-29T06:51:08.524Z,17.27
2019-03-29T06:53:36.774Z,24.17
2019-03-29T06:56:05.889Z,22.70
2019-03-29T06:58:34.474Z,20.87
2019-03-29T07:01:03.021Z,16.47
2019-03-29T07:03:31.602Z,14.87
2019-03-29T07:05:59.825Z,17.13
2019-03-29T07:08:28.405Z,18.53
2019-03-29T07:10:56.709Z,16.13
2019-03-29T07:13:25.215Z,16.37
2019-03-29T07:15:53.762Z,17.90
2019-03-29T07:18:22.340Z,15.37
2019-03-29T07:20:51.497Z,17.80
2019-03-29T07:23:20.148Z,16.13
2019-03-29T07:25:50.044Z,20.52
2019-03-29T07:28:18.589Z,17.27
2019-03-29T07:30:47.141Z,17.90
2019-03-29T07:33:15.721Z,17.77
2019-03-29T07:35:44.269Z,21.80
2019-03-29T07:38:12.854Z,19.40
2019-03-29T07:40:41.404Z,17.30
2019-03-29T07:43:09.978Z,20.17
2019-03-29T07:45:38.526Z,19.30
2019-03-29T07:48:07.114Z,15.07
2019-03-29T07:50:35.661Z,17.37
2019-03-29T07:53:04.307Z,15.53
2019-03-29T07:55:32.850Z,17.23
2019-03-29T07:58:01.427Z,17.30
2019-03-29T08:00:30.114Z,17.00
2019-03-29T08:02:58.699Z,17.30
2019-03-29T08:05:27.251Z,22.33
2019-03-29T08:07:55.837Z,15.53
2019-03-29T08:10:29.171Z,17.30
2019-03-29T08:12:54.620Z,16.60
2019-03-29T08:15:23.169Z,14.50
2019-03-29T08:17:51.726Z,14.73
2019-03-29T08:20:45.133Z,17.53
2019-03-29T08:22:50.509Z,14.97
2019-03-29T08:25:19.152Z,17.33
2019-03-29T08:27:47.703Z,17.10
2019-03-29T08:30:16.354Z,18.07
2019-03-29T08:32:44.937Z,15.33
2019-03-29T08:35:13.763Z,18.10
2019-03-29T08:37:42.411Z,15.53
2019-03-29T08:40:11.298Z,14.77
2019-03-29T08:42:39.881Z,13.77
2019-03-29T08:45:08.377Z,15.23
2019-03-29T08:47:36.970Z,13.43
2019-03-29T08:50:07.170Z,15.20
2019-03-29T08:52:35.740Z,13.13
2019-03-29T08:55:06.362Z,15.17
2019-03-29T08:57:34.906Z,13.60
2019-03-29T09:00:04.826Z,14.03
2019-03-29T09:02:33.456Z,11.97
2019-03-29T09:05:02.097Z,13.43
2019-03-29T09:07:43.934Z,12.77
2019-03-29T09:10:01.878Z,10.80
2019-03-29T09:12:30.429Z,12.90
2019-03-29T09:14:58.681Z,11.47
2019-03-29T09:17:27.439Z,11.33
2019-03-29T09:19:56.002Z,11.60
2019-03-29T09:22:24.555Z,12.17
2019-03-29T09:24:53.134Z,14.37
2019-03-29T09:27:21.684Z,9.67
2019-03-29T09:29:50.257Z,11.87
2019-03-29T09:32:18.485Z,12.00
2019-03-29T09:34:47.103Z,9.30
2019-03-29T09:37:15.768Z,12.30
2019-03-29T09:39:44.367Z,12.13
2019-03-29T09:42:12.891Z,12.20
2019-03-29T09:44:41.510Z,10.50
2019-03-29T09:47:10.101Z,14.97
2019-03-29T09:49:38.649Z,11.57
2019-03-29T09:52:07.232Z,10.07
2019-03-29T09:54:35.778Z,9.60
2019-03-29T09:57:04.363Z,12.70
2019-03-29T09:59:32.913Z,13.60
2019-03-29T10:02:01.496Z,9.00
2019-03-29T10:04:30.049Z,9.10
2019-03-29T10:06:58.634Z,13.17
2019-03-29T10:09:27.179Z,9.50
2019-03-29T10:11:55.761Z,10.17
2019-03-29T10:14:24.383Z,11.27
2019-03-29T10:16:53.853Z,10.17
2019-03-29T10:19:22.406Z,9.23
2019-03-29T10:21:50.986Z,8.20
2019-03-29T10:24:19.207Z,9.43
2019-03-29T10:26:47.782Z,9.53
2019-03-29T10:29:16.329Z,10.10
2019-03-29T10:31:44.982Z,11.00
2019-03-29T10:34:13.537Z,11.27
2019-03-29T10:36:42.190Z,11.53
2019-03-29T10:39:12.251Z,10.40
2019-03-29T10:41:40.997Z,10.13
2019-03-29T10:44:09.554Z,9.77
2019-03-29T10:46:38.109Z,13.43
2019-03-29T10:49:06.829Z,9.77
2019-03-29T10:51:35.377Z,12.87
2019-03-29T10:54:04.026Z,9.33
2019-03-29T10:56:34.459Z,9.90
2019-03-29T10:59:02.811Z,10.00
2019-03-29T11:01:31.362Z,11.53
2019-03-29T11:03:59.946Z,14.13
2019-03-29T11:06:28.498Z,9.77
2019-03-29T11:08:57.078Z,9.20
2019-03-29T11:11:25.624Z,9.10
2019-03-29T11:13:56.641Z,9.87
2019-03-29T11:16:24.393Z,9.33
2019-03-29T11:18:52.970Z,8.07
2019-03-29T11:21:21.667Z,9.80
2019-03-29T11:23:50.337Z,12.93
2019-03-29T11:26:19.025Z,10.50
2019-03-29T11:28:47.611Z,12.43
2019-03-29T11:31:16.301Z,10.87
2019-03-29T11:33:44.954Z,12.77
2019-03-29T11:36:13.514Z,10.73
2019-03-29T11:38:42.089Z,14.80
2019-03-29T11:41:10.641Z,13.10
2019-03-29T11:43:39.229Z,12.50
2019-03-29T11:46:07.914Z,11.10
2019-03-29T11:48:36.562Z,10.83
2019-03-29T11:51:18.298Z,13.83
2019-03-29T11:53:37.318Z,12.07
2019-03-29T11:56:05.982Z,10.03
2019-03-29T11:58:34.221Z,12.40
2019-03-29T12:01:05.398Z,12.17
2019-03-29T12:03:33.001Z,10.53
2019-03-29T12:06:01.225Z,13.10
2019-03-29T12:08:29.809Z,11.43
2019-03-29T12:10:58.362Z,11.17
2019-03-29T12:13:35.055Z,14.07
2019-03-29T12:15:57.277Z,13.77
2019-03-29T12:18:25.858Z,10.93
2019-03-29T12:20:54.445Z,10.27
2019-03-29T12:23:22.829Z,11.30
2019-03-29T12:25:51.055Z,12.03
2019-03-29T12:28:19.702Z,11.70
2019-03-29T12:30:48.321Z,11.17
2019-03-29T12:33:16.974Z,10.20
2019-03-29T12:35:45.521Z,11.40
2019-03-29T12:38:14.141Z,16.47
2019-03-29T12:40:45.215Z,11.73
2019-03-29T12:43:13.048Z,14.03
2019-03-29T12:45:41.582Z,12.13
2019-03-29T12:48:10.267Z,10.40
2019-03-29T12:50:38.846Z,13.33
2019-03-29T12:53:07.470Z,10.63
2019-03-29T12:55:36.042Z,11.60
2019-03-29T12:58:04.734Z,11.70
2019-03-29T13:00:33.450Z,11.03
2019-03-29T13:03:01.748Z,14.07
2019-03-29T13:05:30.326Z,12.33
2019-03-29T13:07:58.879Z,14.00
2019-03-29T13:10:27.526Z,12.43
2019-03-29T13:12:56.079Z,12.17
2019-03-29T13:15:24.657Z,11.73
2019-03-29T13:17:53.212Z,11.00
2019-03-29T13:20:21.861Z,12.17
2019-03-29T13:22:50.483Z,11.93
2019-03-29T13:25:19.125Z,14.87
2019-03-29T13:27:47.673Z,9.10
2019-03-29T13:30:17.251Z,14.30
2019-03-29T13:32:45.909Z,9.67
2019-03-29T13:35:14.490Z,14.43
2019-03-29T13:37:43.037Z,11.17
2019-03-29T13:40:12.161Z,13.43
2019-03-29T13:42:40.709Z,12.07
2019-03-29T13:45:10.530Z,11.60
2019-03-29T13:47:39.085Z,14.17
2019-03-29T13:50:09.207Z,15.33
2019-03-29T13:52:37.759Z,13.33
2019-03-29T13:55:06.878Z,12.67
2019-03-29T13:57:35.502Z,11.23
2019-03-29T14:00:07.166Z,14.27
2019-03-29T14:02:35.785Z,11.40
2019-03-29T14:05:05.975Z,14.00
2019-03-29T14:07:34.554Z,13.33
2019-03-29T14:10:02.846Z,13.37
2019-03-29T14:12:31.422Z,12.10
2019-03-29T14:15:01.534Z,14.10
2019-03-29T14:17:30.192Z,16.70
2019-03-29T14:19:58.746Z,11.97
2019-03-29T14:22:27.326Z,12.53
2019-03-29T14:24:55.880Z,14.40
2019-03-29T14:27:24.530Z,14.10
2019-03-29T14:30:03.475Z,13.73
2019-03-29T14:32:22.985Z,14.40
2019-03-29T14:34:51.537Z,14.47
2019-03-29T14:37:20.118Z,15.17
2019-03-29T14:39:48.666Z,14.60
2019-03-29T14:42:17.245Z,17.43
2019-03-29T14:44:52.195Z,13.10
2019-03-29T14:47:16.161Z,13.70
2019-03-29T14:49:44.716Z,20.57
2019-03-29T14:52:13.301Z,15.20
2019-03-29T14:54:41.845Z,12.10
2019-03-29T14:57:10.430Z,12.87
2019-03-29T14:59:38.974Z,13.33
2019-03-29T15:02:07.553Z,14.33
2019-03-29T15:04:36.134Z,17.57
2019-03-29T15:07:04.857Z,14.40
2019-03-29T15:09:33.409Z,13.60
2019-03-29T15:12:01.989Z,13.40
2019-03-29T15:14:30.542Z,13.43
2019-03-29T15:16:59.194Z,16.43
2019-03-29T15:19:27.751Z,14.47
2019-03-29T15:21:56.302Z,12.80
2019-03-29T15:24:24.882Z,12.17
2019-03-29T15:26:53.105Z,12.73
2019-03-29T15:29:21.353Z,13.03
2019-03-29T15:31:49.906Z,15.43
2019-03-29T15:34:18.489Z,12.57
2019-03-29T15:36:47.038Z,16.10
2019-03-29T15:39:15.618Z,12.53
2019-03-29T15:41:43.847Z,12.67
2019-03-29T15:44:12.428Z,13.63
2019-03-29T15:46:40.972Z,12.77
2019-03-29T15:49:09.557Z,11.53
2019-03-29T15:51:38.117Z,13.63
2019-03-29T15:54:06.685Z,15.33
2019-03-29T15:56:35.238Z,18.10
2019-03-29T15:59:03.886Z,13.53
2019-03-29T16:01:32.434Z,9.67
2019-03-29T16:04:01.009Z,11.60
2019-03-29T16:06:29.562Z,13.50
2019-03-29T16:08:58.141Z,12.13
2019-03-29T16:11:26.693Z,13.07
2019-03-29T16:13:55.272Z,11.00
2019-03-29T16:16:23.894Z,12.33
2019-03-29T16:18:52.473Z,9.70
2019-03-29T16:21:21.021Z,12.63
2019-03-29T16:23:49.605Z,14.37
2019-03-29T16:26:18.161Z,14.77
2019-03-29T16:28:46.747Z,12.33
2019-03-29T16:31:15.302Z,15.50
2019-03-29T16:33:43.878Z,13.20
2019-03-29T16:36:12.426Z,14.07
2019-03-29T16:38:41.073Z,11.90
2019-03-29T16:41:09.634Z,12.47
2019-03-29T16:43:38.216Z,12.53
2019-03-29T16:46:06.765Z,12.57
2019-03-29T16:48:35.025Z,11.70
2019-03-29T16:51:03.585Z,12.20
2019-03-29T16:53:32.137Z,11.77
2019-03-29T16:56:00.401Z,12.93
2019-03-29T16:58:28.948Z,14.67
2019-03-29T17:00:57.533Z,13.53
2019-03-29T17:03:26.082Z,11.50
2019-03-29T17:05:54.670Z,12.43
2019-03-29T17:08:23.218Z,14.87
2019-03-29T17:10:51.802Z,14.43
2019-03-29T17:13:20.029Z,12.73
2019-03-29T17:16:01.189Z,11.07
2019-03-29T17:18:28.719Z,13.47
2019-03-29T17:20:49.056Z,17.47
2019-03-29T17:23:17.658Z,12.57
2019-03-29T17:25:46.246Z,13.03
2019-03-29T17:28:14.802Z,13.70
2019-03-29T17:30:45.103Z,22.13
2019-03-29T17:33:13.658Z,30.73
2019-03-29T17:35:42.246Z,38.90
2019-03-29T17:38:10.798Z,18.10
2019-03-29T17:40:39.449Z,12.10
2019-03-29T17:43:08.003Z,15.30
2019-03-29T17:45:36.653Z,16.37
2019-03-29T17:48:05.245Z,11.20
2019-03-29T17:50:33.845Z,11.33
2019-03-29T17:53:02.387Z,11.27
2019-03-29T17:55:31.983Z,13.53
2019-03-29T17:58:00.698Z,14.37
2019-03-29T18:00:29.553Z,13.53
2019-03-29T18:02:58.106Z,17.53
2019-03-29T18:05:26.702Z,18.20
2019-03-29T18:07:55.258Z,12.67
2019-03-29T18:10:23.809Z,15.33
2019-03-29T18:12:52.071Z,18.43
2019-03-29T18:15:20.857Z,19.07
2019-03-29T18:17:49.442Z,15.93
2019-03-29T18:20:18.335Z,12.53
2019-03-29T18:22:47.105Z,13.60
2019-03-29T18:25:15.738Z,17.57
2019-03-29T18:27:44.318Z,13.03
2019-03-29T18:30:13.805Z,18.80
2019-03-29T18:32:42.755Z,14.27
2019-03-29T18:35:11.444Z,18.73
2019-03-29T18:37:40.095Z,15.20
2019-03-29T18:40:20.650Z,15.20
2019-03-29T18:42:49.229Z,19.67
2019-03-29T18:45:17.778Z,24.83
2019-03-29T18:47:46.386Z,23.17
2019-03-29T18:50:15.077Z,23.37
2019-03-29T18:52:43.663Z,21.00
2019-03-29T18:55:11.883Z,16.23
2019-03-29T18:57:40.465Z,15.70
2019-03-29T19:00:09.458Z,22.47
2019-03-29T19:02:39.574Z,27.83
2019-03-29T19:05:11.208Z,18.33
2019-03-29T19:07:39.790Z,14.13
2019-03-29T19:10:08.785Z,17.10
2019-03-29T19:12:37.441Z,15.07
2019-03-29T19:15:06.633Z,14.03
2019-03-29T19:17:35.217Z,16.03
2019-03-29T19:20:10.650Z,15.27
2019-03-29T19:22:35.475Z,18.00
2019-03-29T19:25:05.641Z,16.13
2019-03-29T19:27:34.224Z,18.37
2019-03-29T19:30:03.913Z,15.73
2019-03-29T19:32:32.139Z,20.77
2019-03-29T19:35:00.714Z,17.90
2019-03-29T19:37:29.263Z,17.13
2019-03-29T19:39:57.843Z,13.40
2019-03-29T19:42:26.390Z,16.47
2019-03-29T19:44:54.970Z,12.50
2019-03-29T19:47:23.517Z,16.53
2019-03-29T19:49:55.123Z,17.40
2019-03-29T19:52:24.959Z,13.03
2019-03-29T19:54:51.861Z,13.47
2019-03-29T19:57:20.407Z,12.17
2019-03-29T19:59:49.017Z,17.40
2019-03-29T20:02:17.538Z,14.13
2019-03-29T20:04:46.187Z,18.63
2019-03-29T20:07:14.734Z,12.20
2019-03-29T20:09:43.386Z,16.07
2019-03-29T20:12:11.938Z,21.50
2019-03-29T20:14:40.596Z,14.27
2019-03-29T20:17:09.226Z,15.50
2019-03-29T20:19:37.803Z,21.33
2019-03-29T20:22:06.350Z,15.97
2019-03-29T20:24:34.997Z,14.63
2019-03-29T20:27:03.617Z,15.60
2019-03-29T20:29:32.195Z,18.03
2019-03-29T20:32:00.741Z,18.07
2019-03-29T20:34:29.321Z,16.23
2019-03-29T20:36:57.870Z,17.47
2019-03-29T20:39:26.453Z,20.90
2019-03-29T20:41:55.071Z,16.43
2019-03-29T20:44:23.645Z,15.97
2019-03-29T20:46:52.198Z,16.93
2019-03-29T20:49:20.745Z,17.83
2019-03-29T20:51:49.395Z,24.23
2019-03-29T20:54:17.942Z,17.53
2019-03-29T20:56:46.523Z,12.73
2019-03-29T20:59:15.065Z,14.63
2019-03-29T21:01:43.647Z,15.77
2019-03-29T21:04:12.202Z,15.57
2019-03-29T21:06:40.783Z,17.73
2019-03-29T21:09:09.399Z,14.43
2019-03-29T21:11:37.978Z,14.50
2019-03-29T21:14:06.594Z,14.70
2019-03-29T21:16:35.169Z,12.40
2019-03-29T21:19:03.398Z,47.43
2019-03-29T21:21:31.978Z,21.40
2019-03-29T21:24:00.526Z,19.93
2019-03-29T21:26:29.106Z,14.07
2019-03-29T21:28:57.722Z,13.97
2019-03-29T21:31:25.977Z,16.30
2019-03-29T21:33:54.531Z,14.30
2019-03-29T21:36:23.165Z,17.00
2019-03-29T21:38:51.713Z,13.70
2019-03-29T21:41:20.362Z,15.83
2019-03-29T21:43:48.914Z,15.10
2019-03-29T21:46:17.494Z,13.97
2019-03-29T21:48:46.033Z,15.17
2019-03-29T21:51:14.620Z,23.30
2019-03-29T21:53:43.936Z,17.07
2019-03-29T21:56:12.649Z,13.83
2019-03-29T21:58:41.198Z,17.13
2019-03-29T22:01:09.914Z,15.73
2019-03-29T22:03:38.462Z,15.00
2019-03-29T22:06:07.039Z,14.30
2019-03-29T22:08:35.590Z,13.30
2019-03-29T22:11:03.885Z,18.43
2019-03-29T22:13:32.541Z,16.27
2019-03-29T22:16:01.154Z,21.00
2019-03-29T22:18:37.928Z,15.03
2019-03-29T22:20:59.934Z,12.50
2019-03-29T22:23:28.513Z,12.67
2019-03-29T22:25:57.057Z,14.30
2019-03-29T22:28:25.311Z,15.03
2019-03-29T22:30:53.534Z,14.93
2019-03-29T22:33:22.182Z,16.90
2019-03-29T22:35:50.729Z,16.77
2019-03-29T22:38:19.305Z,22.30
2019-03-29T22:40:48.621Z,14.83
2019-03-29T22:43:17.666Z,13.23
2019-03-29T22:45:47.346Z,16.40
2019-03-29T22:48:15.998Z,14.00
2019-03-29T22:50:44.542Z,15.63
2019-03-29T22:53:13.118Z,14.33
2019-03-29T22:55:41.670Z,13.90
2019-03-29T22:58:10.243Z,14.27
2019-03-29T23:00:43.334Z,11.97
2019-03-29T23:03:12.113Z,14.63
2019-03-29T23:05:40.661Z,13.73
2019-03-29T23:08:08.985Z,12.07
2019-03-29T23:10:37.250Z,13.20
2019-03-29T23:13:05.478Z,14.93
2019-03-29T23:15:34.089Z,14.77
2019-03-29T23:18:02.665Z,14.10
2019-03-29T23:20:31.213Z,12.10
2019-03-29T23:22:59.787Z,14.20
2019-03-29T23:25:28.333Z,13.67
2019-03-29T23:27:56.906Z,21.83
2019-03-29T23:30:25.189Z,14.37
2019-03-29T23:32:53.770Z,15.27
2019-03-29T23:35:22.317Z,14.30
2019-03-29T23:37:50.870Z,16.87
2019-03-29T23:40:19.447Z,13.20
2019-03-29T23:42:47.989Z,18.37
2019-03-29T23:45:16.314Z,15.60
2019-03-29T23:47:44.861Z,16.83
2019-03-29T23:50:13.105Z,18.80
2019-03-29T23:52:41.654Z,14.10
2019-03-29T23:55:10.370Z,13.93
2019-03-29T23:57:38.922Z,16.33
